Time;durP1;ratioP1;P1;durP2;ratioP2;P2;SDS_P1;SDS_P2;PMS_P1;PMS_P2;Temp;Humidity;BMP_temperature;BMP_pressure;BME280_temperature;BME280_humidity;BME280_pressure;Samples;Min_cycle;Max_cycle;Signal;HPM_P1;HPM_P2
2022/07/29 00:00:12;;;;;;;1.05;1.00;;;;;;;17.91;100.00;99314.34;4326694;33;20028;-72
2022/07/29 00:02:58;;;;;;;5.97;1.33;;;;;;;18.01;100.00;99314.22;4323797;33;20056;-73
2022/07/29 00:05:25;;;;;;;6.47;1.30;;;;;;;17.91;100.00;99315.16;4325479;33;20377;-72
2022/07/29 00:07:51;;;;;;;1.42;1.20;;;;;;;17.74;100.00;99307.44;4326635;33;20062;-73
2022/07/29 00:10:18;;;;;;;2.85;1.60;;;;;;;17.60;100.00;99282.03;4326033;33;20486;-73
2022/07/29 00:12:45;;;;;;;2.85;1.15;;;;;;;17.66;100.00;99308.06;4323849;33;20036;-76
2022/07/29 00:15:12;;;;;;;1.50;1.20;;;;;;;17.47;100.00;99278.06;4353535;32;20035;-74
2022/07/29 00:17:38;;;;;;;3.72;1.50;;;;;;;17.71;100.00;99308.03;4356200;32;20025;-72
2022/07/29 00:20:05;;;;;;;1.35;1.17;;;;;;;17.86;100.00;99306.22;4369565;32;20036;-73
2022/07/29 00:22:32;;;;;;;3.33;1.20;;;;;;;17.92;100.00;99299.63;4371195;32;20068;-72
2022/07/29 00:24:58;;;;;;;1.55;1.20;;;;;;;17.94;100.00;99313.78;4411706;32;20341;-72
2022/07/29 00:27:25;;;;;;;2.72;1.20;;;;;;;17.82;100.00;99289.63;4418005;32;20066;-72
2022/07/29 00:29:51;;;;;;;1.12;1.10;;;;;;;18.04;100.00;99319.06;4418031;32;20053;-73
2022/07/29 00:32:17;;;;;;;4.35;1.20;;;;;;;17.82;100.00;99291.53;4417128;32;20078;-73
2022/07/29 00:37:33;;;;;;;2.47;1.80;;;;;;;17.78;100.00;99316.63;4386049;32;20034;-73
2022/07/29 00:40:00;;;;;;;1.83;1.10;;;;;;;17.58;100.00;99289.63;4384947;32;20051;-73
2022/07/29 00:42:27;;;;;;;3.30;1.33;;;;;;;17.52;100.00;99286.19;4385867;32;20057;-73
2022/07/29 00:44:53;;;;;;;1.70;1.10;;;;;;;17.71;100.00;99318.91;4353086;32;20105;-74
2022/07/29 00:47:20;;;;;;;5.97;1.35;;;;;;;17.43;100.00;99293.34;4355844;32;20055;-73
2022/07/29 00:49:46;;;;;;;8.27;2.00;;;;;;;17.46;100.00;99330.09;4355904;32;20503;-73
2022/07/29 00:52:13;;;;;;;5.95;1.23;;;;;;;17.28;100.00;99318.81;4354037;32;20050;-73
2022/07/29 00:54:40;;;;;;;4.32;2.80;;;;;;;17.47;100.00;99323.53;4354872;32;20470;-75
2022/07/29 00:57:07;;;;;;;2.45;1.73;;;;;;;17.60;100.00;99328.31;4355313;32;20635;-73
2022/07/29 00:59:34;;;;;;;2.45;1.20;;;;;;;17.45;100.00;99321.09;4355895;32;20051;-73
2022/07/29 01:02:07;;;;;;;1.48;1.25;;;;;;;17.53;100.00;99338.72;4355169;32;20048;-73
2022/07/29 01:04:33;;;;;;;3.05;1.40;;;;;;;17.30;100.00;99297.56;4353745;32;20027;-75
2022/07/29 01:07:01;;;;;;;6.03;1.37;;;;;;;17.36;100.00;99323.63;4355441;32;20036;-73
2022/07/29 01:09:29;;;;;;;6.35;2.00;;;;;;;17.45;100.00;99323.81;4355317;32;20102;-73
2022/07/29 01:11:55;;;;;;;3.95;1.17;;;;;;;17.19;100.00;99287.88;4356022;32;20027;-74
2022/07/29 01:14:22;;;;;;;5.43;1.23;;;;;;;17.37;100.00;99292.59;4355921;32;20065;-74
2022/07/29 01:17:02;;;;;;;3.50;1.45;;;;;;;17.64;100.00;99318.44;4378472;32;20043;-76
2022/07/29 01:19:50;;;;;;;4.37;1.40;;;;;;;17.48;100.00;99301.47;4382753;32;20028;-73
2022/07/29 01:22:42;;;;;;;8.68;2.55;;;;;;;17.64;100.00;99321.16;4382131;32;20569;-74
2022/07/29 01:25:11;;;;;;;2.75;1.50;;;;;;;17.47;100.00;99320.81;4381498;32;20046;-73
2022/07/29 01:27:47;;;;;;;6.43;2.10;;;;;;;17.38;100.00;99318.72;4368332;32;20421;-72
2022/07/29 01:30:13;;;;;;;6.47;1.23;;;;;;;17.33;100.00;99318.78;4361020;32;20117;-72
2022/07/29 01:32:42;;;;;;;7.05;1.52;;;;;;;17.17;100.00;99277.28;4367996;32;20077;-73
2022/07/29 01:35:14;;;;;;;7.28;1.30;;;;;;;17.33;100.00;99305.16;4368073;32;20054;-73
2022/07/29 01:38:07;;;;;;;1.95;1.15;;;;;;;17.18;100.00;99286.25;4352653;32;20051;-74
2022/07/29 01:40:52;;;;;;;1.37;1.37;;;;;;;17.38;100.00;99307.81;4353015;32;20032;-73
2022/07/29 01:43:31;;;;;;;1.77;1.20;;;;;;;17.31;100.00;99307.37;4352023;32;20040;-72
2022/07/29 01:46:04;;;;;;;3.78;1.20;;;;;;;17.05;100.00;99272.22;4352688;32;20105;-73
2022/07/29 01:49:08;;;;;;;1.87;1.60;;;;;;;17.08;100.00;99267.31;4340528;32;20040;-73
2022/07/29 01:52:03;;;;;;;2.33;1.60;;;;;;;16.82;100.00;99259.38;4274495;33;20075;-73
2022/07/29 01:54:42;;;;;;;;;;;;;;;16.69;100.00;99296.97;4288806;33;20063;-73
2022/07/29 01:57:13;;;;;;;2.80;1.30;;;;;;;16.93;100.00;99306.34;4295195;33;19976;-73
2022/07/29 01:59:43;;;;;;;2.13;1.37;;;;;;;16.80;100.00;99302.31;4289905;33;20045;-74
2022/07/29 02:02:11;;;;;;;5.37;1.58;;;;;;;16.53;100.00;99232.97;4290226;33;20135;-73
2022/07/29 02:04:39;;;;;;;1.80;1.20;;;;;;;17.04;100.00;99296.97;4287685;33;20114;-73
2022/07/29 02:07:09;;;;;;;3.40;1.60;;;;;;;16.88;100.00;99297.13;4287519;33;20045;-73
2022/07/29 02:09:37;;;;;;;1.20;1.10;;;;;;;16.71;100.00;99273.03;4302966;33;20054;-76
2022/07/29 02:12:07;;;;;;;5.15;2.28;;;;;;;16.82;100.00;99300.16;4301940;33;20126;-73
2022/07/29 02:14:37;;;;;;;7.15;1.50;;;;;;;16.62;100.00;99266.56;4303280;33;20040;-72
2022/07/29 02:17:04;;;;;;;6.28;2.40;;;;;;;16.75;100.00;99284.16;4302099;33;20482;-73
2022/07/29 02:19:32;;;;;;;4.37;2.17;;;;;;;16.67;100.00;99293.75;4319412;33;20027;-74
2022/07/29 02:22:00;;;;;;;6.35;1.70;;;;;;;16.63;100.00;99295.41;4339431;33;20032;-72
2022/07/29 02:24:30;;;;;;;5.97;1.98;;;;;;;16.56;100.00;99305.78;4339797;32;20036;-73
2022/07/29 02:26:59;;;;;;;2.20;1.48;;;;;;;16.23;100.00;99267.41;4418564;32;20056;-74
2022/07/29 02:29:28;;;;;;;7.25;1.65;;;;;;;16.13;100.00;99267.44;4385278;32;20035;-75
2022/07/29 02:31:57;;;;;;;2.80;2.33;;;;;;;16.24;100.00;99262.78;4351332;32;20515;-74
2022/07/29 02:34:24;;;;;;;2.53;1.42;;;;;;;16.15;100.00;99229.97;4370511;32;20370;-72
2022/07/29 02:36:52;;;;;;;2.75;1.77;;;;;;;16.01;100.00;99204.53;4364061;32;20031;-73
2022/07/29 02:39:19;;;;;;;2.90;1.48;;;;;;;16.28;100.00;99253.78;4369638;32;20047;-73
2022/07/29 02:41:51;;;;;;;4.22;1.65;;;;;;;16.22;100.00;99249.47;4368055;32;20530;-73
2022/07/29 02:44:20;;;;;;;1.65;1.52;;;;;;;16.20;100.00;99224.50;4369221;32;20083;-73
2022/07/29 02:47:04;;;;;;;6.97;1.37;;;;;;;16.41;100.00;99252.34;4369477;32;20110;-73
2022/07/29 02:49:33;;;;;;;2.75;1.42;;;;;;;16.39;100.00;99237.44;4363841;32;20051;-74
2022/07/29 02:52:12;;;;;;;2.85;1.45;;;;;;;16.57;100.00;99276.69;4369411;32;20028;-74
2022/07/29 02:54:46;;;;;;;2.00;1.40;;;;;;;16.48;100.00;99276.47;4368737;32;20053;-71
2022/07/29 02:57:22;;;;;;;1.45;1.25;;;;;;;16.26;100.00;99245.13;4368657;32;20712;-72
2022/07/29 02:59:52;;;;;;;2.75;1.35;;;;;;;16.38;100.00;99265.69;4369197;32;20421;-72
2022/07/29 03:02:20;;;;;;;2.67;1.33;;;;;;;16.23;100.00;99251.09;4371015;32;20372;-73
2022/07/29 03:04:48;;;;;;;10.23;2.80;;;;;;;16.15;100.00;99246.28;4383650;32;20086;-72
2022/07/29 03:07:18;;;;;;;3.85;2.15;;;;;;;16.39;100.00;99289.06;4403507;32;20368;-73
2022/07/29 03:09:45;;;;;;;3.58;1.50;;;;;;;16.31;100.00;99269.53;4416069;32;20347;-72
2022/07/29 03:12:14;;;;;;;2.90;1.60;;;;;;;16.37;100.00;99272.19;4414253;32;20039;-74
2022/07/29 03:14:42;;;;;;;7.45;1.60;;;;;;;16.27;100.00;99241.28;4397045;32;20064;-72
2022/07/29 03:17:09;;;;;;;6.85;1.87;;;;;;;16.35;100.00;99264.31;4399063;32;20061;-72
2022/07/29 03:19:36;;;;;;;8.98;1.62;;;;;;;16.41;100.00;99279.50;4397592;32;20045;-73
2022/07/29 03:22:03;;;;;;;5.15;1.37;;;;;;;16.34;100.00;99279.03;4398227;32;20061;-75
2022/07/29 03:24:35;;;;;;;1.98;1.55;;;;;;;16.20;100.00;99240.81;4398263;32;20031;-74
2022/07/29 03:27:04;;;;;;;2.00;1.42;;;;;;;15.79;100.00;99165.00;4399058;32;20039;-74
2022/07/29 03:29:31;;;;;;;2.97;1.20;;;;;;;16.54;100.00;99278.06;4401218;32;20059;-73
2022/07/29 03:31:58;;;;;;;1.33;1.23;;;;;;;16.46;100.00;99275.94;4398413;32;20124;-75
2022/07/29 03:34:24;;;;;;;4.00;1.62;;;;;;;16.33;100.00;99261.87;4399892;32;20048;-74
2022/07/29 03:36:50;;;;;;;1.67;1.58;;;;;;;16.43;100.00;99273.78;4401700;32;20463;-73
2022/07/29 03:39:21;;;;;;;2.03;1.20;;;;;;;16.33;100.00;99234.72;4401915;32;20346;-73
2022/07/29 03:41:52;;;;;;;6.20;1.65;;;;;;;16.51;100.00;99240.56;4401819;32;20187;-73
2022/07/29 03:44:21;;;;;;;4.10;1.35;;;;;;;16.41;100.00;99232.50;4398838;32;20113;-73
2022/07/29 03:46:49;;;;;;;8.80;1.70;;;;;;;16.50;100.00;99241.69;4417873;32;20625;-73
2022/07/29 03:49:16;;;;;;;3.70;1.55;;;;;;;16.54;100.00;99242.72;4418428;32;20064;-73
2022/07/29 03:51:44;;;;;;;2.22;1.30;;;;;;;16.64;100.00;99250.81;4416477;32;20440;-74
2022/07/29 03:54:10;;;;;;;2.33;1.15;;;;;;;16.64;100.00;99250.81;4418148;32;20064;-73
2022/07/29 03:56:46;;;;;;;3.97;1.48;;;;;;;16.66;100.00;99253.25;4418661;32;20030;-73
2022/07/29 03:59:16;;;;;;;4.82;1.50;;;;;;;16.86;100.00;99290.34;4385747;32;20031;-74
2022/07/29 04:01:43;;;;;;;4.90;1.30;;;;;;;16.73;100.00;99253.72;4383081;32;20027;-74
2022/07/29 04:04:10;;;;;;;10.93;1.67;;;;;;;16.78;100.00;99255.59;4385133;32;20128;-74
2022/07/29 04:06:40;;;;;;;6.00;1.70;;;;;;;16.81;100.00;99255.03;4386099;32;20049;-73
2022/07/29 04:09:07;;;;;;;7.00;1.60;;;;;;;16.79;100.00;99268.09;4369366;32;20061;-73
2022/07/29 04:11:35;;;;;;;7.20;1.87;;;;;;;16.98;100.00;99298.94;4370894;32;20043;-76
2022/07/29 04:14:02;;;;;;;3.92;1.30;;;;;;;17.01;100.00;99292.94;4369861;32;20036;-74
2022/07/29 04:16:29;;;;;;;3.67;1.70;;;;;;;17.12;100.00;99309.16;4368577;32;20040;-73
2022/07/29 04:18:55;;;;;;;5.22;1.60;;;;;;;17.30;100.00;99300.28;4371050;32;20401;-73
2022/07/29 04:21:22;;;;;;;5.47;1.50;;;;;;;16.89;100.00;99246.28;4370929;32;20038;-73
2022/07/29 04:23:49;;;;;;;4.00;1.50;;;;;;;17.25;100.00;99297.63;4348983;32;20071;-75
2022/07/29 04:26:17;;;;;;;16.60;1.75;;;;;;;17.48;100.00;99306.09;4355499;32;20066;-73
2022/07/29 04:28:44;;;;;;;6.22;1.70;;;;;;;17.29;100.00;99282.31;4355691;32;20168;-73
2022/07/29 04:31:11;;;;;;;1.80;1.55;;;;;;;17.48;100.00;99300.66;4367726;32;20027;-73
2022/07/29 04:33:38;;;;;;;5.25;1.83;;;;;;;17.13;100.00;99262.63;4369966;32;20431;-75
2022/07/29 04:36:05;;;;;;;3.95;1.70;;;;;;;17.49;100.00;99313.19;4370364;32;20051;-74
2022/07/29 04:38:31;;;;;;;4.22;1.60;;;;;;;17.38;100.00;99307.81;4370062;32;20024;-74
2022/07/29 04:40:58;;;;;;;5.55;1.80;;;;;;;17.05;100.00;99239.56;4364548;32;20555;-73
2022/07/29 04:43:24;;;;;;;8.73;1.92;;;;;;;17.51;100.00;99302.81;4362148;32;20121;-76
2022/07/29 04:45:51;;;;;;;3.35;1.73;;;;;;;17.43;100.00;99271.59;4361454;32;20083;-73
2022/07/29 04:48:17;;;;;;;4.60;2.20;;;;;;;17.58;100.00;99273.31;4341081;33;20056;-73
2022/07/29 04:50:44;;;;;;;5.05;2.05;;;;;;;17.70;100.00;99303.66;4346875;32;20032;-73
2022/07/29 04:53:10;;;;;;;3.85;2.08;;;;;;;17.61;100.00;99283.63;4347149;32;20036;-74
2022/07/29 04:55:37;;;;;;;4.95;3.08;;;;;;;17.66;100.00;99275.38;4351175;33;20048;-76
2022/07/29 04:58:03;;;;;;;5.30;1.98;;;;;;;17.83;100.00;99306.78;4353143;32;20351;-74
2022/07/29 05:00:30;;;;;;;4.07;2.53;;;;;;;17.60;100.00;99271.13;4355721;32;20902;-74
2022/07/29 05:02:56;;;;;;;2.33;2.08;;;;;;;17.70;100.00;99271.00;4355730;32;20073;-73
2022/07/29 05:05:22;;;;;;;6.47;2.90;;;;;;;17.96;100.00;99308.84;4354683;32;20121;-73
2022/07/29 05:07:55;;;;;;;7.00;3.35;;;;;;;17.85;100.00;99277.34;4353814;32;20053;-74
2022/07/29 05:10:21;;;;;;;14.50;3.28;;;;;;;17.87;100.00;99280.59;4355410;32;20103;-73
2022/07/29 05:12:48;;;;;;;7.15;3.45;;;;;;;17.89;100.00;99305.66;4355276;32;20036;-74
2022/07/29 05:15:14;;;;;;;10.27;2.87;;;;;;;17.89;100.00;99283.87;4326029;33;20051;-74
2022/07/29 05:17:41;;;;;;;11.48;3.12;;;;;;;18.15;100.00;99304.22;4324853;33;20419;-73
2022/07/29 05:20:08;;;;;;;6.00;3.78;;;;;;;18.19;100.00;99314.53;4346459;32;20060;-74
2022/07/29 05:22:34;;;;;;;2.75;2.42;;;;;;;18.40;100.00;99310.44;4366626;32;20044;-72
2022/07/29 05:25:01;;;;;;;4.93;3.12;;;;;;;18.47;100.00;99310.84;4368727;32;20035;-72
2022/07/29 05:27:27;;;;;;;8.38;2.78;;;;;;;18.52;100.00;99301.78;4369573;32;20097;-73
2022/07/29 05:29:53;;;;;;;4.93;2.85;;;;;;;18.57;100.00;99309.09;4368591;32;20082;-75
2022/07/29 05:32:20;;;;;;;11.93;3.00;;;;;;;18.59;100.00;99312.31;4366276;32;20146;-73
2022/07/29 05:34:46;;;;;;;6.45;2.92;;;;;;;18.52;100.00;99296.34;4362827;32;20035;-73
2022/07/29 05:37:13;;;;;;;7.93;2.37;;;;;;;18.54;100.00;99271.50;4350245;32;20046;-73
2022/07/29 05:39:40;;;;;;;6.75;2.50;;;;;;;18.77;100.00;99300.59;4348679;32;20039;-72
2022/07/29 05:42:10;;;;;;;13.52;2.50;;;;;;;18.55;100.00;99278.59;4345085;32;20040;-76
2022/07/29 05:44:37;;;;;;;6.93;2.92;;;;;;;18.88;100.00;99293.09;4334146;33;20058;-73
2022/07/29 05:47:04;;;;;;;5.90;2.70;;;;;;;19.05;100.00;99303.44;4351895;32;20032;-74
2022/07/29 05:49:30;;;;;;;6.47;2.67;;;;;;;19.04;100.00;99297.16;4354796;32;20039;-72
2022/07/29 05:51:57;;;;;;;8.43;2.85;;;;;;;19.24;100.00;99295.19;4354372;32;20020;-74
2022/07/29 05:54:24;;;;;;;5.50;2.22;;;;;;;19.16;100.00;99301.34;4356770;32;20128;-72
2022/07/29 05:56:51;;;;;;;4.45;2.20;;;;;;;19.20;100.00;99284.06;4391354;32;20038;-72
2022/07/29 05:59:17;;;;;;;2.28;2.00;;;;;;;19.35;100.00;99295.81;4368441;32;20031;-72
2022/07/29 06:01:43;;;;;;;5.80;1.92;;;;;;;19.45;100.00;99312.03;4369505;32;20035;-73
2022/07/29 06:04:10;;;;;;;4.05;1.87;;;;;;;19.20;100.00;99278.59;4367417;32;20055;-74
2022/07/29 06:06:36;;;;;;;1.90;1.80;;;;;;;19.63;100.00;99314.97;4367847;32;20032;-72
2022/07/29 06:09:03;;;;;;;3.35;2.05;;;;;;;19.50;100.00;99287.34;4369185;32;20377;-72
2022/07/29 06:11:29;;;;;;;9.85;2.25;;;;;;;19.72;100.00;99286.63;4346253;32;20375;-72
2022/07/29 06:14:02;;;;;;;13.07;2.45;;;;;;;19.90;100.00;99323.19;4347397;32;20040;-75
2022/07/29 06:16:29;;;;;;;4.75;1.92;;;;;;;19.76;100.00;99282.19;4345053;32;20088;-72
2022/07/29 06:19:02;;;;;;;4.22;2.12;;;;;;;19.59;100.00;99301.91;4347039;32;20338;-72
2022/07/29 06:21:28;;;;;;;3.33;2.20;;;;;;;19.84;100.00;99299.81;4346309;32;20075;-72
2022/07/29 06:23:55;;;;;;;15.10;2.17;;;;;;;20.19;100.00;99322.03;4346772;32;20122;-74
2022/07/29 06:26:21;;;;;;;2.75;1.98;;;;;;;19.50;100.00;99221.81;4346124;32;20040;-73
2022/07/29 06:28:47;;;;;;;4.20;1.87;;;;;;;19.81;100.00;99281.28;4346626;32;20041;-72
2022/07/29 06:31:14;;;;;;;15.05;1.92;;;;;;;19.68;100.00;99258.31;4357904;32;20435;-73
2022/07/29 06:33:41;;;;;;;9.60;2.58;;;;;;;20.35;100.00;99316.25;4368461;32;20377;-73
2022/07/29 06:36:07;;;;;;;11.65;2.10;;;;;;;20.25;100.00;99279.81;4367432;32;20027;-75
2022/07/29 06:38:34;;;;;;;5.60;1.62;;;;;;;20.12;100.00;99277.91;4368566;32;20068;-72
2022/07/29 06:41:05;;;;;;;6.20;1.60;;;;;;;20.08;100.00;99235.91;4366535;32;20062;-73
2022/07/29 06:43:41;;;;;;;3.85;1.92;;;;;;;20.60;100.00;99279.25;4411588;32;20027;-73
2022/07/29 06:46:12;;;;;;;2.25;1.50;;;;;;;20.72;100.00;99287.75;4413947;32;20099;-74
2022/07/29 06:48:39;;;;;;;5.87;1.50;;;;;;;20.95;100.00;99315.94;4414301;32;20070;-73
2022/07/29 06:51:06;;;;;;;2.80;1.80;;;;;;;21.01;100.00;99319.34;4416743;32;20474;-72
2022/07/29 06:53:33;;;;;;;3.10;1.87;;;;;;;20.73;100.00;99310.47;4422463;32;20042;-73
2022/07/29 06:56:01;;;;;;;7.80;1.67;;;;;;;20.53;100.00;99287.91;4421650;32;20068;-73
2022/07/29 06:58:27;;;;;;;3.92;1.50;;;;;;;21.02;100.00;99324.50;4421543;32;20102;-73
2022/07/29 07:00:56;;;;;;;3.97;1.62;;;;;;;21.10;100.00;99325.69;4423207;32;20046;-73
2022/07/29 07:03:23;;;;;;;3.72;1.58;;;;;;;21.14;100.00;99309.44;4424647;32;20022;-74
2022/07/29 07:05:50;;;;;;;3.33;1.37;;;;;;;21.20;100.00;99319.12;4423394;32;20031;-72
2022/07/29 07:08:17;;;;;;;9.25;1.80;;;;;;;21.01;100.00;99295.53;4425493;32;20968;-72
2022/07/29 07:10:44;;;;;;;4.28;1.30;;;;;;;21.22;100.00;99286.78;4424138;32;20034;-73
2022/07/29 07:13:10;;;;;;;9.82;1.62;;;;;;;21.59;100.00;99321.16;4426191;32;20030;-72
2022/07/29 07:15:36;;;;;;;1.95;1.48;;;;;;;21.40;100.00;99280.25;4422711;32;20056;-74
2022/07/29 07:18:03;;;;;;;14.73;2.72;;;;;;;21.35;100.00;99310.53;4423446;32;20030;-72
2022/07/29 07:20:30;;;;;;;5.95;1.80;;;;;;;21.27;100.00;99283.91;4425655;32;20119;-72
2022/07/29 07:22:56;;;;;;;5.55;1.90;;;;;;;21.70;100.00;99321.69;4424562;32;20062;-72
2022/07/29 07:25:23;;;;;;;2.65;1.77;;;;;;;21.92;100.00;99311.72;4419967;32;20076;-75
2022/07/29 07:27:49;;;;;;;6.37;1.40;;;;;;;21.93;100.00;99296.91;4418116;32;20064;-72
2022/07/29 07:30:16;;;;;;;8.48;1.75;;;;;;;21.91;100.00;99293.69;4419121;32;20349;-73
2022/07/29 07:32:42;;;;;;;4.40;2.12;;;;;;;22.03;100.00;99310.31;4427427;32;20060;-74
2022/07/29 07:35:10;;;;;;;12.32;2.53;;;;;;;21.99;99.14;99325.78;4434625;32;20070;-74
2022/07/29 07:37:37;;;;;;;8.60;2.12;;;;;;;22.16;99.21;99322.25;4432994;32;20038;-76
2022/07/29 07:40:04;;;;;;;6.70;1.58;;;;;;;22.23;97.17;99316.34;4434121;32;20038;-72
2022/07/29 07:42:30;;;;;;;1.67;1.58;;;;;;;22.27;94.57;99317.28;4434397;32;20030;-73
2022/07/29 07:44:57;;;;;;;5.28;1.75;;;;;;;22.57;96.55;99314.75;4434294;32;20398;-73
2022/07/29 07:47:24;;;;;;;3.37;1.67;;;;;;;22.01;92.48;99282.41;4415365;32;20037;-73
2022/07/29 07:49:51;;;;;;;11.30;2.17;;;;;;;22.30;92.97;99300.22;4416156;32;20026;-75
2022/07/29 07:52:20;;;;;;;2.87;1.73;;;;;;;22.30;91.20;99278.28;4414465;32;20071;-72
2022/07/29 07:54:46;;;;;;;5.37;1.20;;;;;;;22.54;88.69;99307.97;4416667;32;20136;-72
2022/07/29 07:57:13;;;;;;;5.40;1.10;;;;;;;22.92;92.15;99298.28;4416663;32;20038;-72
2022/07/29 07:59:40;;;;;;;4.78;1.30;;;;;;;23.17;87.26;99296.66;4414052;32;20058;-73
2022/07/29 08:02:07;;;;;;;4.03;1.58;;;;;;;23.07;76.35;99300.53;4414967;32;20019;-74
2022/07/29 08:04:34;;;;;;;9.90;2.05;;;;;;;23.07;78.49;99311.50;4415222;32;20042;-72
2022/07/29 08:07:00;;;;;;;2.75;1.17;;;;;;;23.18;78.83;99296.31;4416385;32;20136;-73
2022/07/29 08:09:28;;;;;;;2.25;1.20;;;;;;;23.12;76.91;99281.16;4416412;32;20030;-73
2022/07/29 08:11:56;;;;;;;1.05;1.00;;;;;;;23.47;75.34;99313.16;4415234;32;20043;-76
2022/07/29 08:14:22;;;;;;;3.72;1.80;;;;;;;23.56;73.21;99300.22;4414899;32;20035;-72
2022/07/29 08:16:49;;;;;;;3.25;1.10;;;;;;;23.32;71.42;99278.81;4386093;32;20023;-72
2022/07/29 08:19:15;;;;;;;2.15;1.23;;;;;;;23.18;73.22;99301.81;4386091;32;20040;-73
2022/07/29 08:21:41;;;;;;;2.92;1.10;;;;;;;23.42;76.38;99274.91;4386167;32;20524;-73
2022/07/29 08:26:53;;;;;;;4.78;1.27;;;;;;;23.41;69.23;99315.31;4384773;32;20342;-73
2022/07/29 08:29:19;;;;;;;19.27;1.55;;;;;;;23.32;70.42;99298.03;4385859;32;20062;-72
2022/07/29 08:31:45;;;;;;;2.28;1.00;;;;;;;23.06;63.49;99282.41;4383652;32;20086;-72
2022/07/29 08:34:13;;;;;;;6.00;1.77;;;;;;;23.19;67.51;99275.94;4385457;32;20031;-73
2022/07/29 08:36:39;;;;;;;4.15;1.42;;;;;;;23.31;68.82;99296.41;4385094;32;20077;-71
2022/07/29 08:39:05;;;;;;;4.53;1.35;;;;;;;23.09;71.86;99298.28;4385580;32;20083;-71
2022/07/29 08:41:32;;;;;;;3.25;2.00;;;;;;;23.08;72.86;99302.13;4383453;32;20602;-72
2022/07/29 08:43:58;;;;;;;2.80;1.08;;;;;;;22.95;67.35;99303.12;4363220;32;20456;-73
2022/07/29 08:46:30;;;;;;;7.12;1.50;;;;;;;22.72;69.39;99297.00;4363729;32;20053;-73
2022/07/29 08:48:57;;;;;;;6.15;1.20;;;;;;;22.82;72.51;99272.78;4376966;32;20027;-73
2022/07/29 08:51:26;;;;;;;4.78;1.02;;;;;;;22.88;69.78;99291.81;4375634;32;20032;-74
2022/07/29 08:53:54;;;;;;;4.35;1.27;;;;;;;22.90;65.09;99278.59;4378545;32;20990;-73
2022/07/29 08:56:21;;;;;;;2.22;1.40;;;;;;;23.07;67.54;99278.53;4339021;33;20048;-74
2022/07/29 08:58:48;;;;;;;6.00;1.37;;;;;;;23.61;67.74;99313.75;4340122;33;20048;-72
2022/07/29 09:01:17;;;;;;;1.12;1.02;;;;;;;23.48;67.62;99315.59;4340564;33;20028;-75
2022/07/29 09:03:46;;;;;;;4.55;1.10;;;;;;;23.93;67.37;99315.09;4339500;33;20050;-73
2022/07/29 09:06:17;;;;;;;6.22;1.30;;;;;;;24.05;63.68;99288.84;4338115;33;20037;-73
2022/07/29 09:08:45;;;;;;;2.10;1.10;;;;;;;23.60;62.95;99256.38;4338071;33;20035;-73
2022/07/29 09:11:12;;;;;;;1.73;1.05;;;;;;;24.00;67.48;99309.09;4339600;33;20036;-72
2022/07/29 09:16:12;;;;;;;1.67;1.05;;;;;;;24.12;61.48;99311.09;4390146;32;20091;-72
2022/07/29 09:18:40;;;;;;;6.20;1.23;;;;;;;23.61;64.61;99319.25;4393569;32;20128;-73
2022/07/29 09:24:07;;;;;;;12.18;1.40;;;;;;;23.82;65.40;99313.84;4389013;32;20039;-73
2022/07/29 09:26:43;;;;;;;1.58;1.48;;;;;;;23.58;66.14;99309.75;4398219;32;20070;-73
2022/07/29 09:29:22;;;;;;;2.75;0.82;;;;;;;23.52;68.10;99299.28;4430582;32;20050;-73
2022/07/29 09:31:52;;;;;;;2.97;1.02;;;;;;;23.02;71.47;99243.84;4429109;32;20430;-74
2022/07/29 09:34:24;;;;;;;3.53;1.30;;;;;;;23.49;66.02;99286.19;4432364;32;20077;-74
2022/07/29 09:36:51;;;;;;;;;;;;;;;23.41;63.96;99254.87;4430579;32;20065;-75
2022/07/29 09:39:35;;;;;;;2.47;0.90;;;;;;;23.75;65.25;99253.06;4432737;32;19957;-74
2022/07/29 09:42:04;;;;;;;1.25;1.12;;;;;;;24.34;58.43;99289.94;4431940;32;20049;-74
2022/07/29 09:45:00;;;;;;;9.45;1.37;;;;;;;24.14;52.70;99286.84;4431591;32;20042;-74
2022/07/29 09:47:41;;;;;;;4.65;1.52;;;;;;;24.56;54.98;99297.88;4338437;33;20050;-72
2022/07/29 09:50:08;;;;;;;7.25;1.52;;;;;;;23.78;53.06;99290.88;4336996;33;20050;-75
2022/07/29 09:52:45;;;;;;;1.65;1.02;;;;;;;23.63;56.65;99291.44;4338511;33;20084;-72
2022/07/29 09:55:12;;;;;;;1.67;1.10;;;;;;;23.47;62.12;99244.47;4339933;33;20377;-72
2022/07/29 09:57:38;;;;;;;4.93;1.20;;;;;;;24.06;56.83;99273.91;4337875;33;20154;-76
2022/07/29 10:00:10;;;;;;;4.68;1.45;;;;;;;24.18;58.31;99275.97;4339157;33;20062;-73
2022/07/29 10:02:40;;;;;;;2.87;1.00;;;;;;;24.24;56.65;99269.91;4338727;33;20079;-72
2022/07/29 10:05:17;;;;;;;3.97;1.60;;;;;;;24.53;57.97;99278.44;4339722;33;20112;-72
2022/07/29 10:07:51;;;;;;;10.32;1.20;;;;;;;24.78;55.03;99277.44;4338500;33;20054;-73
2022/07/29 10:10:21;;;;;;;2.15;1.17;;;;;;;24.72;55.41;99284.28;4339694;33;20040;-75
2022/07/29 10:13:06;;;;;;;2.45;0.90;;;;;;;24.30;52.66;99263.09;4338007;33;20024;-73
2022/07/29 10:15:38;;;;;;;3.80;1.02;;;;;;;23.88;51.41;99246.53;4308714;33;20055;-72
2022/07/29 10:18:07;;;;;;;4.75;1.20;;;;;;;24.19;52.47;99255.53;4309144;33;20037;-73
2022/07/29 10:20:34;;;;;;;4.87;1.20;;;;;;;24.30;55.26;99260.31;4309181;33;20055;-73
2022/07/29 10:23:01;;;;;;;4.07;0.85;;;;;;;24.36;53.29;99273.88;4318515;32;20029;-74
2022/07/29 10:25:27;;;;;;;1.87;1.00;;;;;;;24.21;54.31;99214.78;4390581;32;20065;-72
2022/07/29 10:27:54;;;;;;;7.62;1.10;;;;;;;24.79;52.61;99256.19;4391696;32;20446;-73
2022/07/29 10:30:22;;;;;;;3.92;1.60;;;;;;;24.67;51.28;99243.22;4390831;32;20040;-73
2022/07/29 10:33:23;;;;;;;3.50;1.62;;;;;;;24.99;49.85;99277.37;4388808;32;20356;-76
2022/07/29 10:36:17;;;;;;;5.15;1.98;;;;;;;25.21;50.28;99272.62;4390364;32;20100;-73
2022/07/29 10:38:52;;;;;;;8.15;1.20;;;;;;;24.90;48.78;99273.91;4393101;32;20057;-73
2022/07/29 10:41:34;;;;;;;1.20;1.12;;;;;;;24.87;49.33;99274.56;4391029;32;20086;-74
2022/07/29 10:44:16;;;;;;;2.03;1.27;;;;;;;24.61;48.58;99239.84;4388998;32;20086;-73
2022/07/29 10:46:44;;;;;;;7.15;1.95;;;;;;;24.95;47.97;99259.91;4391864;32;20091;-73
2022/07/29 10:49:14;;;;;;;9.70;1.50;;;;;;;24.50;47.24;99249.62;4389812;32;20120;-73
2022/07/29 10:52:05;;;;;;;1.40;0.90;;;;;;;24.92;47.30;99262.53;4391077;32;20103;-76
2022/07/29 10:54:35;;;;;;;;;;;;;;;25.50;47.87;99273.59;4405582;32;20046;-73
2022/07/29 10:57:16;;;;;;;3.87;1.30;;;;;;;25.50;47.10;99262.56;4407269;32;19926;-73
2022/07/29 10:59:47;;;;;;;2.17;1.30;;;;;;;25.07;47.76;99266.63;4405896;32;20117;-73
2022/07/29 11:02:32;;;;;;;4.97;0.98;;;;;;;25.26;47.79;99228.28;4406006;32;20526;-73
2022/07/29 11:04:59;;;;;;;0.82;0.70;;;;;;;26.05;45.47;99261.16;4401508;32;20061;-74
2022/07/29 11:07:26;;;;;;;1.65;0.90;;;;;;;26.23;44.19;99260.88;4407686;32;20435;-73
2022/07/29 11:10:14;;;;;;;4.37;0.90;;;;;;;26.29;43.09;99253.97;4367727;32;20043;-72
2022/07/29 11:12:40;;;;;;;1.75;1.00;;;;;;;26.19;43.43;99241.47;4368411;32;20262;-75
2022/07/29 11:15:20;;;;;;;3.03;1.70;;;;;;;25.64;45.70;99220.84;4365608;32;20057;-73
2022/07/29 11:17:53;;;;;;;3.67;1.40;;;;;;;25.42;44.99;99244.16;4368127;32;20039;-73
2022/07/29 11:20:41;;;;;;;2.92;1.75;;;;;;;24.74;44.34;99237.94;4366375;32;20096;-73
2022/07/29 11:23:31;;;;;;;12.43;1.08;;;;;;;25.10;44.73;99254.87;4358602;32;20036;-73
2022/07/29 11:26:24;;;;;;;7.10;1.20;;;;;;;25.08;44.66;99240.66;4366505;32;20045;-74
2022/07/29 11:29:05;;;;;;;9.73;1.73;;;;;;;25.27;43.94;99249.16;4377594;32;20404;-74
2022/07/29 11:31:41;;;;;;;2.58;1.02;;;;;;;25.50;46.78;99235.78;4373386;32;20460;-73
2022/07/29 11:34:35;;;;;;;1.65;1.15;;;;;;;25.51;46.11;99215.34;4376308;32;20064;-72
2022/07/29 11:37:16;;;;;;;10.32;1.95;;;;;;;25.92;47.31;99234.72;4373952;32;20065;-73
2022/07/29 11:39:44;;;;;;;2.55;0.93;;;;;;;25.19;49.96;99230.81;4375494;32;20045;-72
2022/07/29 11:42:16;;;;;;;4.25;1.25;;;;;;;25.38;51.80;99217.31;4398258;32;20078;-72
2022/07/29 11:45:10;;;;;;;2.35;1.20;;;;;;;26.04;48.80;99248.53;4397223;32;20046;-73
2022/07/29 11:47:58;;;;;;;1.08;1.08;;;;;;;26.60;47.38;99249.72;4398634;32;20073;-73
2022/07/29 11:50:33;;;;;;;3.92;1.20;;;;;;;26.87;49.41;99222.44;4398782;32;20094;-73
2022/07/29 11:53:00;;;;;;;1.42;0.90;;;;;;;27.55;46.76;99246.28;4399603;32;20080;-74